Tampa/MacDill AFB, Florida
Current Conditions -  °F | °C
As of 11:58 AM on Friday 28 Nov 2014 (Local Time) from KMCF Reporting Station
Clear Clear  
Wind Chill: 56°   Ceiling: Unl
Heat Index: 56°   Visibility: 10mi
Dew Point: 35°   Wind: 10mph
Humidity: 46%   Direction: 60°ENE
Pressure: 30.32"   Gusts: NA
Location:  27.85°N, 82.52°W
Report Text: KMCF 281658Z AUTO 06009KT 10SM CLR 13/02 A3032 RMK AO2 SLP270 T01310016
Loading
Personal Weather Stations






























Interactive Weather Map New forecast layout! Learn more

10-Day Weather Forecast

Advertisements
Track Severe Weather on mobile